CST,Max TemperatureF,Mean TemperatureF,Min TemperatureF,Max Dew PointF,MeanDew PointF,Min DewpointF,Max Humidity, Mean Humidity, Min Humidity, Max Sea Level PressureIn, Mean Sea Level PressureIn, Min Sea Level PressureIn, Max VisibilityMiles, Mean VisibilityMiles, Min VisibilityMiles, Max Wind SpeedMPH, Mean Wind SpeedMPH, Max Gust SpeedMPH,PrecipitationIn, CloudCover, Events, WindDirDegrees
2012-11-1,77,59,41,44,39,34,76,56,28,30.04,29.99,29.92,10,7,2,9,1,,0.00,0,,152
2012-11-2,89,70,54,49,45,37,69,51,22,29.94,29.85,29.74,10,9,2,26,9,34,0.00,0,,153
2012-11-3,64,51,39,41,34,32,76,56,34,30.22,30.15,29.96,10,10,7,14,9,18,0.00,0,,5
2012-11-4,69,52,35,38,34,32,89,58,27,30.24,30.16,30.05,10,10,10,12,2,18,0.00,0,,187
2012-11-5,53,44,35,41,37,31,86,66,52,30.16,30.11,30.04,10,10,10,23,9,29,0.00,3,,321
2012-11-6,66,49,32,39,33,27,96,63,28,30.16,30.12,30.08,10,10,8,17,11,25,0.00,0,,329
2012-11-7,64,48,33,30,28,26,76,47,26,30.24,30.14,30.06,10,10,5,10,3,,0.00,0,,108
2012-11-8,75,62,48,53,41,30,70,47,34,30.04,29.91,29.81,10,10,8,24,13,31,0.00,0,,156
2012-11-9,80,71,62,59,57,54,75,62,47,29.84,29.78,29.71,10,10,10,28,19,36,0.00,0,,174
2012-11-10,73,70,66,58,56,55,68,60,53,29.81,29.72,29.62,10,10,10,31,23,46,0.00,1,Thunderstorm,179
2012-11-11,69,48,28,59,42,23,100,86,59,30.33,29.90,29.67,10,8,2,25,15,34,1.08,6,Rain-Thunderstorm,306
2012-11-12,52,39,26,29,26,23,92,67,32,30.50,30.44,30.35,10,10,10,14,4,,0.00,0,,243
2012-11-13,55,44,32,32,28,26,82,58,34,30.48,30.41,30.32,10,10,10,13,7,,0.00,0,,173
2012-11-14,57,46,36,32,29,26,67,52,32,30.39,30.32,30.25,10,10,9,17,8,21,0.00,0,,151
2012-11-15,61,49,37,36,33,29,79,58,35,30.39,30.30,30.25,10,10,9,12,6,,0.00,0,,149
2012-11-16,62,48,33,39,33,29,89,63,31,30.45,30.40,30.36,10,10,7,8,2,,0.00,0,,140
2012-11-17,61,50,39,36,31,28,76,52,32,30.37,30.31,30.24,10,10,10,22,9,28,0.00,0,,159
2012-11-18,62,52,43,45,35,30,83,53,39,30.25,30.18,30.09,10,10,10,21,13,28,0.01,3,,158
2012-11-19,68,57,44,53,47,42,96,76,59,30.16,30.12,30.09,10,10,6,18,10,,0.03,1,Rain,181
2012-11-20,71,53,35,46,41,36,100,83,35,30.26,30.20,30.16,10,5,0,6,1,,0.00,1,Fog,7
2012-11-21,73,60,46,50,44,39,83,58,35,30.24,30.13,29.96,10,10,8,22,10,26,0.00,0,,163
2012-11-22,77,64,50,53,47,35,64,53,41,30.29,29.98,29.86,10,10,10,25,17,34,0.00,0,,211
2012-11-23,46,37,28,35,23,17,86,56,33,30.58,30.49,30.32,10,10,10,22,9,28,0.00,0,,344
2012-11-24,57,40,23,25,22,19,85,51,26,30.45,30.20,29.96,10,10,10,23,7,31,0.00,0,,181
2012-11-25,61,48,36,31,28,23,62,47,31,29.95,29.91,29.85,10,10,10,9,5,,0.00,0,,115
2012-11-26,48,39,28,31,27,21,85,63,34,30.48,30.20,29.94,10,10,6,26,13,36,0.00,0,,27
2012-11-27,45,31,17,26,23,16,96,74,44,30.51,30.41,30.31,10,8,2,14,5,,0.00,0,,159
2012-11-28,57,44,30,35,31,24,82,62,40,30.40,30.30,30.16,10,10,3,16,6,22,0.00,0,,140
2012-11-29,70,56,43,44,38,34,76,59,35,30.13,30.04,29.95,10,10,10,20,11,29,0.00,0,,176
2012-11-30,64,53,42,56,46,34,94,78,61,30.09,30.02,29.94,10,9,5,16,7,22,0.00,1,,152